createdAt,value
2023-09-26T00:00:22.065Z,8.07
2023-09-26T00:02:49.806Z,7.10
2023-09-26T00:05:19.942Z,7.93
2023-09-26T00:07:50.577Z,7.63
2023-09-26T00:10:19.779Z,8.00
2023-09-26T00:12:48.158Z,7.70
2023-09-26T00:15:16.726Z,8.27
2023-09-26T00:17:45.271Z,8.80
2023-09-26T00:20:17.115Z,9.50
2023-09-26T00:22:44.819Z,8.03
2023-09-26T00:25:14.253Z,7.10
2023-09-26T00:27:42.044Z,5.93
2023-09-26T00:30:10.909Z,7.40
2023-09-26T00:32:40.034Z,7.80
2023-09-26T00:35:13.275Z,6.33
2023-09-26T00:37:42.300Z,6.57
2023-09-26T00:40:16.445Z,6.90
2023-09-26T00:42:46.257Z,7.57
2023-09-26T00:45:14.733Z,7.10
2023-09-26T00:47:43.417Z,6.87
2023-09-26T00:50:13.959Z,7.77
2023-09-26T00:52:43.424Z,6.90
2023-09-26T00:55:12.050Z,8.17
2023-09-26T00:57:41.761Z,6.97
2023-09-26T01:00:14.583Z,7.10
2023-09-26T01:02:42.729Z,7.57
2023-09-26T01:05:11.150Z,7.73
2023-09-26T01:07:40.411Z,7.17
2023-09-26T01:10:09.753Z,6.80
2023-09-26T01:12:39.631Z,6.03
2023-09-26T01:15:08.876Z,6.07
2023-09-26T01:17:37.620Z,6.87
2023-09-26T01:20:13.101Z,6.57
2023-09-26T01:22:45.449Z,6.90
2023-09-26T01:25:16.935Z,6.93
2023-09-26T01:27:45.008Z,7.63
2023-09-26T01:30:14.494Z,7.43
2023-09-26T01:32:42.344Z,8.83
2023-09-26T01:35:10.724Z,8.00
2023-09-26T01:37:39.080Z,8.23
2023-09-26T01:40:17.024Z,8.90
2023-09-26T01:42:46.532Z,8.00
2023-09-26T01:45:14.465Z,7.47
2023-09-26T01:47:47.697Z,8.50
2023-09-26T01:50:16.544Z,7.87
2023-09-26T01:52:45.023Z,8.50
2023-09-26T01:55:15.352Z,8.60
2023-09-26T01:57:43.328Z,10.70
2023-09-26T02:00:14.080Z,11.53
2023-09-26T02:02:43.040Z,9.20
2023-09-26T02:05:11.826Z,10.27
2023-09-26T02:07:39.956Z,9.60
2023-09-26T02:10:09.161Z,9.83
2023-09-26T02:12:38.722Z,9.30
2023-09-26T02:15:09.519Z,8.17
2023-09-26T02:17:39.060Z,8.87
2023-09-26T02:20:13.460Z,10.23
2023-09-26T02:22:43.047Z,9.17
2023-09-26T02:25:11.768Z,8.60
2023-09-26T02:27:39.757Z,8.40
2023-09-26T02:30:09.983Z,7.37
2023-09-26T02:32:40.157Z,6.60
2023-09-26T02:35:10.557Z,6.43
2023-09-26T02:37:39.942Z,7.20
2023-09-26T02:40:11.088Z,6.37
2023-09-26T02:42:39.924Z,7.97
2023-09-26T02:45:09.185Z,8.00
2023-09-26T02:47:37.145Z,7.60
2023-09-26T02:50:08.856Z,7.40
2023-09-26T02:52:36.638Z,7.40
2023-09-26T02:55:04.813Z,7.47
2023-09-26T02:57:35.261Z,8.00
2023-09-26T03:00:15.191Z,6.70
2023-09-26T03:02:43.433Z,7.80
2023-09-26T03:05:13.056Z,8.50
2023-09-26T03:07:41.516Z,7.70
2023-09-26T03:10:10.411Z,7.77
2023-09-26T03:12:38.332Z,7.77
2023-09-26T03:15:08.564Z,8.00
2023-09-26T03:17:36.790Z,7.00
2023-09-26T03:20:09.951Z,7.87
2023-09-26T03:22:39.408Z,7.47
2023-09-26T03:25:08.218Z,8.90
2023-09-26T03:27:36.329Z,7.60
2023-09-26T03:30:04.198Z,7.43
2023-09-26T03:32:32.326Z,8.00
2023-09-26T03:35:00.382Z,8.70
2023-09-26T03:37:28.151Z,8.80
2023-09-26T03:39:57.630Z,9.60
2023-09-26T03:42:25.717Z,8.93
2023-09-26T03:44:53.882Z,7.97
2023-09-26T03:47:21.889Z,8.47
2023-09-26T03:49:54.544Z,8.30
2023-09-26T03:52:22.558Z,8.57
2023-09-26T03:54:51.094Z,8.70
2023-09-26T03:57:20.604Z,8.00
2023-09-26T03:59:50.886Z,7.63
2023-09-26T04:02:19.784Z,8.90
2023-09-26T04:04:48.277Z,7.93
2023-09-26T04:07:16.545Z,8.90
2023-09-26T04:09:45.261Z,12.27
2023-09-26T04:12:13.619Z,14.13
2023-09-26T04:14:42.946Z,10.40
2023-09-26T04:17:11.209Z,9.67
2023-09-26T04:19:39.562Z,8.40
2023-09-26T04:22:07.730Z,8.23
2023-09-26T04:24:36.105Z,8.43
2023-09-26T04:27:04.171Z,8.73
2023-09-26T04:29:32.531Z,8.67
2023-09-26T04:32:02.065Z,7.93
2023-09-26T04:34:30.765Z,9.33
2023-09-26T04:36:58.935Z,9.20
2023-09-26T04:39:27.812Z,10.40
2023-09-26T04:41:56.195Z,8.77
2023-09-26T04:44:24.501Z,8.40
2023-09-26T04:46:53.427Z,11.00
2023-09-26T04:49:22.924Z,9.67
2023-09-26T04:51:51.560Z,8.23
2023-09-26T04:54:19.634Z,9.80
2023-09-26T04:56:48.322Z,9.20
2023-09-26T04:59:16.336Z,8.70
2023-09-26T05:01:47.049Z,8.43
2023-09-26T05:04:15.338Z,8.43
2023-09-26T05:06:45.192Z,8.10
2023-09-26T05:09:13.295Z,8.37
2023-09-26T05:11:41.779Z,8.80
2023-09-26T05:14:09.836Z,9.13
2023-09-26T05:16:37.934Z,11.10
2023-09-26T05:19:06.848Z,10.20
2023-09-26T05:21:35.315Z,9.67
2023-09-26T05:24:06.532Z,9.67
2023-09-26T05:26:34.787Z,8.50
2023-09-26T05:29:03.074Z,10.00
2023-09-26T05:31:33.442Z,9.80
2023-09-26T05:34:01.979Z,8.40
2023-09-26T05:36:30.389Z,9.90
2023-09-26T05:38:58.867Z,8.07
2023-09-26T05:41:28.738Z,9.10
2023-09-26T05:43:57.591Z,9.23
2023-09-26T05:46:25.956Z,9.47
2023-09-26T05:48:54.467Z,9.23
2023-09-26T05:51:22.811Z,9.33
2023-09-26T05:53:51.199Z,9.30
2023-09-26T05:56:19.767Z,8.47
2023-09-26T05:58:50.646Z,9.40
2023-09-26T06:01:19.700Z,10.10
2023-09-26T06:03:48.103Z,11.10
2023-09-26T06:06:16.534Z,8.63
2023-09-26T06:08:45.220Z,8.70
2023-09-26T06:11:13.713Z,8.53
2023-09-26T06:13:44.247Z,8.70
2023-09-26T06:16:14.181Z,9.27
2023-09-26T06:18:42.420Z,9.57
2023-09-26T06:21:10.564Z,10.40
2023-09-26T06:23:39.210Z,7.90
2023-09-26T06:26:07.506Z,7.10
2023-09-26T06:28:36.074Z,6.00
2023-09-26T06:31:08.403Z,6.27
2023-09-26T06:33:38.871Z,5.37
2023-09-26T06:36:13.174Z,4.80
2023-09-26T06:38:41.962Z,5.50
2023-09-26T06:41:10.752Z,3.80
2023-09-26T06:43:38.857Z,4.73
2023-09-26T06:46:08.144Z,4.97
2023-09-26T06:48:39.943Z,4.27
2023-09-26T06:51:09.590Z,4.20
2023-09-26T06:53:38.228Z,4.40
2023-09-26T06:56:07.921Z,4.63
2023-09-26T06:58:37.736Z,5.10
2023-09-26T07:01:13.356Z,4.83
2023-09-26T07:03:43.697Z,4.43
2023-09-26T07:06:13.465Z,5.10
2023-09-26T07:08:42.888Z,4.37
2023-09-26T07:11:11.767Z,3.87
2023-09-26T07:16:11.699Z,4.30
2023-09-26T07:18:40.412Z,4.33
2023-09-26T07:21:11.077Z,3.50
2023-09-26T07:23:42.389Z,3.87
2023-09-26T07:26:15.797Z,4.00
2023-09-26T07:28:45.868Z,3.90
2023-09-26T07:31:15.755Z,3.30
2023-09-26T07:33:44.655Z,4.20
2023-09-26T07:36:14.992Z,4.23
2023-09-26T07:38:46.462Z,3.90
2023-09-26T07:41:14.942Z,4.47
2023-09-26T07:43:43.377Z,3.83
2023-09-26T07:46:12.368Z,4.30
2023-09-26T07:48:41.545Z,4.50
2023-09-26T07:51:13.034Z,4.00
2023-09-26T07:53:45.683Z,4.20
2023-09-26T07:56:14.667Z,4.30
2023-09-26T07:58:43.106Z,4.50
2023-09-26T08:01:11.349Z,4.53
2023-09-26T08:03:40.886Z,4.20
2023-09-26T08:06:09.944Z,4.70
2023-09-26T08:08:39.275Z,3.90
2023-09-26T08:11:11.168Z,4.60
2023-09-26T08:13:41.898Z,4.97
2023-09-26T08:16:11.193Z,4.63
2023-09-26T08:18:39.563Z,3.90
2023-09-26T08:21:08.039Z,5.20
2023-09-26T08:23:36.523Z,4.60
2023-09-26T08:26:08.009Z,3.80
2023-09-26T08:28:38.023Z,4.03
2023-09-26T08:31:08.893Z,3.90
2023-09-26T08:33:37.408Z,3.67
2023-09-26T08:36:14.774Z,3.90
2023-09-26T08:38:43.189Z,4.90
2023-09-26T08:41:12.367Z,3.70
2023-09-26T08:43:41.868Z,4.83
2023-09-26T08:46:10.648Z,4.27
2023-09-26T08:48:40.827Z,3.50
2023-09-26T08:51:09.602Z,4.10
2023-09-26T08:53:37.790Z,5.53
2023-09-26T08:56:06.822Z,4.80
2023-09-26T08:58:36.082Z,4.00
2023-09-26T09:01:06.118Z,4.17
2023-09-26T09:03:34.803Z,4.87
2023-09-26T09:06:03.034Z,5.27
2023-09-26T09:08:31.464Z,5.10
2023-09-26T09:10:59.884Z,4.60
2023-09-26T09:13:30.804Z,4.60
2023-09-26T09:16:17.588Z,4.93
2023-09-26T09:18:48.278Z,4.43
2023-09-26T09:21:29.148Z,5.80
2023-09-26T09:23:59.009Z,5.47
2023-09-26T09:26:30.673Z,6.20
2023-09-26T09:29:00.561Z,5.00
2023-09-26T09:31:30.914Z,5.77
2023-09-26T09:34:00.612Z,6.87
2023-09-26T09:36:29.696Z,4.33
2023-09-26T09:38:58.437Z,5.30
2023-09-26T09:41:26.726Z,4.73
2023-09-26T09:43:55.369Z,4.27
2023-09-26T09:46:27.096Z,5.13
2023-09-26T09:49:00.964Z,6.20
2023-09-26T09:51:29.970Z,5.17
2023-09-26T09:54:01.410Z,5.80
2023-09-26T09:56:37.167Z,5.53
2023-09-26T09:59:07.351Z,6.23
2023-09-26T10:01:37.559Z,6.07
2023-09-26T10:04:09.254Z,6.80
2023-09-26T10:06:39.513Z,6.20
2023-09-26T10:09:08.949Z,5.20
2023-09-26T10:11:38.591Z,5.70
2023-09-26T10:14:07.175Z,5.40
2023-09-26T10:16:36.074Z,6.00
2023-09-26T10:19:05.621Z,6.07
2023-09-26T10:21:36.774Z,5.57
2023-09-26T10:24:30.915Z,6.10
2023-09-26T10:30:00.247Z,5.17
2023-09-26T10:32:38.312Z,4.90
2023-09-26T10:35:30.102Z,5.30
2023-09-26T10:38:12.091Z,5.40
2023-09-26T10:40:40.808Z,5.57
2023-09-26T10:45:59.017Z,5.93
2023-09-26T10:48:27.282Z,5.77
2023-09-26T10:50:56.550Z,6.27
2023-09-26T10:53:27.797Z,7.20
2023-09-26T10:55:56.820Z,5.90
2023-09-26T10:58:29.191Z,6.30
2023-09-26T11:00:59.716Z,6.33
2023-09-26T11:03:28.651Z,5.30
2023-09-26T11:05:57.749Z,6.20
2023-09-26T11:08:28.314Z,5.63
2023-09-26T11:10:56.860Z,5.67
2023-09-26T11:13:26.045Z,4.63
2023-09-26T11:15:54.965Z,5.60
2023-09-26T11:18:24.555Z,6.20
2023-09-26T11:21:02.711Z,5.47
2023-09-26T11:23:44.877Z,5.73
2023-09-26T11:26:13.971Z,5.93
2023-09-26T11:28:42.366Z,6.40
2023-09-26T11:31:11.122Z,5.67
2023-09-26T11:33:39.833Z,7.10
2023-09-26T11:36:09.148Z,6.50
2023-09-26T11:38:48.975Z,5.30
2023-09-26T11:41:17.545Z,5.93
2023-09-26T11:43:49.021Z,5.97
2023-09-26T11:46:18.347Z,6.00
2023-09-26T11:48:48.724Z,5.90
2023-09-26T11:51:17.109Z,5.83
2023-09-26T11:53:47.940Z,4.70
2023-09-26T11:56:16.026Z,6.13
2023-09-26T11:58:44.219Z,5.00
2023-09-26T12:01:14.775Z,5.20
2023-09-26T12:03:43.496Z,5.97
2023-09-26T12:06:11.657Z,5.53
2023-09-26T12:08:40.351Z,4.50
2023-09-26T12:11:09.830Z,6.93
2023-09-26T12:13:38.109Z,5.23
2023-09-26T12:16:07.297Z,4.97
2023-09-26T12:18:35.377Z,4.57
2023-09-26T12:21:05.445Z,5.30
2023-09-26T12:23:34.351Z,5.23
2023-09-26T12:26:02.704Z,5.40
2023-09-26T12:28:34.242Z,6.10
2023-09-26T12:31:03.182Z,4.90
2023-09-26T12:33:31.727Z,4.97
2023-09-26T12:36:00.630Z,5.30
2023-09-26T12:38:29.417Z,6.30
2023-09-26T12:40:57.931Z,5.13
2023-09-26T12:43:26.172Z,5.53
2023-09-26T12:45:56.220Z,4.83
2023-09-26T12:48:25.349Z,5.27
2023-09-26T12:50:53.807Z,5.40
2023-09-26T12:53:22.603Z,5.07
2023-09-26T12:55:50.825Z,5.67
2023-09-26T12:58:19.030Z,6.13
2023-09-26T13:00:47.718Z,6.07
2023-09-26T13:03:20.023Z,5.90
2023-09-26T13:05:48.470Z,4.93
2023-09-26T13:08:17.255Z,5.77
2023-09-26T13:10:45.368Z,5.80
2023-09-26T13:13:13.681Z,5.73
2023-09-26T13:15:42.364Z,6.57
2023-09-26T13:18:11.144Z,6.00
2023-09-26T13:20:40.740Z,5.53
2023-09-26T13:23:09.589Z,4.87
2023-09-26T13:25:37.775Z,6.70
2023-09-26T13:28:06.469Z,5.13
2023-09-26T13:30:36.438Z,5.97
2023-09-26T13:33:07.022Z,5.40
2023-09-26T13:35:35.669Z,5.30
2023-09-26T13:38:05.785Z,5.20
2023-09-26T13:40:34.279Z,5.80
2023-09-26T13:43:02.826Z,5.80
2023-09-26T13:45:30.974Z,5.93
2023-09-26T13:47:59.204Z,5.23
2023-09-26T13:50:27.778Z,5.00
2023-09-26T13:52:55.997Z,6.00
2023-09-26T13:55:27.498Z,5.43
2023-09-26T13:57:56.157Z,5.07
2023-09-26T14:00:24.367Z,4.93
2023-09-26T14:02:54.203Z,5.60
2023-09-26T14:05:24.752Z,5.70
2023-09-26T14:07:53.322Z,4.33
2023-09-26T14:10:23.959Z,4.77
2023-09-26T14:12:54.934Z,5.70
2023-09-26T14:15:23.708Z,5.37
2023-09-26T14:17:53.899Z,4.87
2023-09-26T14:20:23.119Z,3.70
2023-09-26T14:22:52.099Z,3.97
2023-09-26T14:25:21.075Z,5.43
2023-09-26T14:27:50.041Z,3.50
2023-09-26T14:30:20.405Z,4.00
2023-09-26T14:32:49.881Z,4.63
2023-09-26T14:35:18.627Z,4.37
2023-09-26T14:37:48.596Z,4.00
2023-09-26T14:40:16.856Z,4.60
2023-09-26T14:42:45.915Z,4.83
2023-09-26T14:45:15.154Z,4.23
2023-09-26T14:47:44.919Z,4.00
2023-09-26T14:50:13.428Z,5.37
2023-09-26T14:52:42.309Z,5.97
2023-09-26T14:55:10.845Z,3.60
2023-09-26T14:57:39.064Z,3.83
2023-09-26T15:00:10.584Z,4.27
2023-09-26T15:02:39.531Z,3.20
2023-09-26T15:05:10.141Z,4.13
2023-09-26T15:07:38.519Z,4.83
2023-09-26T15:10:09.483Z,3.87
2023-09-26T15:12:37.664Z,4.73
2023-09-26T15:15:07.015Z,4.40
2023-09-26T15:17:35.923Z,4.93
2023-09-26T15:20:05.081Z,5.30
2023-09-26T15:22:34.753Z,4.60
2023-09-26T15:25:04.049Z,4.90
2023-09-26T15:27:32.737Z,5.03
2023-09-26T15:30:01.155Z,6.37
2023-09-26T15:32:29.925Z,5.03
2023-09-26T15:34:59.038Z,4.27
2023-09-26T15:37:30.120Z,6.03
2023-09-26T15:40:02.077Z,4.90
2023-09-26T15:42:30.397Z,5.30
2023-09-26T15:44:59.188Z,5.03
2023-09-26T15:47:29.221Z,5.50
2023-09-26T15:49:57.548Z,4.83
2023-09-26T15:52:25.943Z,5.23
2023-09-26T15:54:54.377Z,5.17
2023-09-26T15:57:23.872Z,5.23
2023-09-26T15:59:52.621Z,6.20
2023-09-26T16:02:21.625Z,6.30
2023-09-26T16:04:50.466Z,5.50
2023-09-26T16:07:18.718Z,6.37
2023-09-26T16:09:46.970Z,5.73
2023-09-26T16:12:15.242Z,5.50
2023-09-26T16:14:44.901Z,6.13
2023-09-26T16:17:14.083Z,6.00
2023-09-26T16:19:42.595Z,5.37
2023-09-26T16:22:11.450Z,5.40
2023-09-26T16:24:40.533Z,5.70
2023-09-26T16:27:08.878Z,5.33
2023-09-26T16:29:37.075Z,5.77
2023-09-26T16:32:07.451Z,5.43
2023-09-26T16:34:35.700Z,7.10
2023-09-26T16:37:04.138Z,6.30
2023-09-26T16:39:32.877Z,6.13
2023-09-26T16:42:02.123Z,5.33
2023-09-26T16:44:30.442Z,5.07
2023-09-26T16:46:59.334Z,5.97
2023-09-26T16:49:28.965Z,6.37
2023-09-26T16:51:57.109Z,6.73
2023-09-26T16:54:25.860Z,6.50
2023-09-26T16:56:54.192Z,6.37
2023-09-26T16:59:22.479Z,7.17
2023-09-26T17:01:52.230Z,7.83
2023-09-26T17:04:21.681Z,6.50
2023-09-26T17:06:57.183Z,7.80
2023-09-26T17:09:25.697Z,7.17
2023-09-26T17:11:54.131Z,6.93
2023-09-26T17:14:25.423Z,9.00
2023-09-26T17:16:53.599Z,8.77
2023-09-26T17:19:21.843Z,6.80
2023-09-26T17:21:51.946Z,7.80
2023-09-26T17:24:20.579Z,8.53
2023-09-26T17:26:48.843Z,8.30
2023-09-26T17:29:17.457Z,8.90
2023-09-26T17:31:46.070Z,9.87
2023-09-26T17:34:14.325Z,8.90
2023-09-26T17:36:43.085Z,9.20
2023-09-26T17:39:13.408Z,8.87
2023-09-26T17:41:41.893Z,8.60
2023-09-26T17:44:11.312Z,9.70
2023-09-26T17:46:43.740Z,7.80
2023-09-26T17:49:12.920Z,8.10
2023-09-26T17:51:41.437Z,8.77
2023-09-26T17:54:09.576Z,8.33
2023-09-26T17:56:39.537Z,9.20
2023-09-26T17:59:07.737Z,9.97
2023-09-26T18:01:36.372Z,9.47
2023-09-26T18:04:04.970Z,9.50
2023-09-26T18:06:33.077Z,9.30
2023-09-26T18:09:01.633Z,9.73
2023-09-26T18:11:29.704Z,9.67
2023-09-26T18:13:59.133Z,9.77
2023-09-26T18:16:27.952Z,9.47
2023-09-26T18:18:56.241Z,9.53
2023-09-26T18:21:25.127Z,10.20
2023-09-26T18:23:55.625Z,10.27
2023-09-26T18:26:24.310Z,10.60
2023-09-26T18:28:52.448Z,12.10
2023-09-26T18:31:22.544Z,13.87
2023-09-26T18:33:50.671Z,12.43
2023-09-26T18:36:18.860Z,15.47
2023-09-26T18:38:47.396Z,10.70
2023-09-26T18:41:15.515Z,14.70
2023-09-26T18:43:43.695Z,14.93
2023-09-26T18:46:12.502Z,17.37
2023-09-26T18:48:41.997Z,16.07
2023-09-26T18:51:09.919Z,16.77
2023-09-26T18:53:38.521Z,15.80
2023-09-26T18:56:06.779Z,14.77
2023-09-26T18:58:34.944Z,14.60
2023-09-26T19:01:03.560Z,14.90
2023-09-26T19:03:31.809Z,13.50
2023-09-26T19:06:04.480Z,13.20
2023-09-26T19:08:32.853Z,12.50
2023-09-26T19:11:01.577Z,12.03
2023-09-26T19:13:30.237Z,12.50
2023-09-26T19:15:58.386Z,14.30
2023-09-26T19:18:26.572Z,14.03
2023-09-26T19:20:55.525Z,14.30
2023-09-26T19:23:24.990Z,13.87
2023-09-26T19:25:53.448Z,12.63
2023-09-26T19:28:22.898Z,11.53
2023-09-26T19:30:50.941Z,11.80
2023-09-26T19:33:19.805Z,11.53
2023-09-26T19:35:47.921Z,12.10
2023-09-26T19:38:16.791Z,11.63
2023-09-26T19:40:46.697Z,12.03
2023-09-26T19:43:14.728Z,11.50
2023-09-26T19:45:42.770Z,10.30
2023-09-26T19:48:11.946Z,11.07
2023-09-26T19:50:40.188Z,10.53
2023-09-26T19:53:08.252Z,10.73
2023-09-26T19:55:36.689Z,11.57
2023-09-26T19:58:06.496Z,12.43
2023-09-26T20:00:35.038Z,11.90
2023-09-26T20:03:03.487Z,11.50
2023-09-26T20:05:31.634Z,11.87
2023-09-26T20:08:00.228Z,11.93
2023-09-26T20:10:28.519Z,11.63
2023-09-26T20:12:56.864Z,11.37
2023-09-26T20:15:27.023Z,11.40
2023-09-26T20:17:55.369Z,12.40
2023-09-26T20:20:23.903Z,10.47
2023-09-26T20:22:52.161Z,10.90
2023-09-26T20:25:20.684Z,10.37
2023-09-26T20:27:52.128Z,11.67
2023-09-26T20:30:20.881Z,11.93
2023-09-26T20:32:50.544Z,10.40
2023-09-26T20:35:18.820Z,9.87
2023-09-26T20:37:47.144Z,10.80
2023-09-26T20:40:15.173Z,11.00
2023-09-26T20:42:43.212Z,11.47
2023-09-26T20:45:12.220Z,12.60
2023-09-26T20:47:40.284Z,11.97
2023-09-26T20:50:10.635Z,12.70
2023-09-26T20:52:38.667Z,13.13
2023-09-26T20:55:07.928Z,10.67
2023-09-26T20:57:36.056Z,12.83
2023-09-26T21:00:05.741Z,12.30
2023-09-26T21:02:34.741Z,13.67
2023-09-26T21:05:03.294Z,12.50
2023-09-26T21:07:33.316Z,12.23
2023-09-26T21:10:01.426Z,12.80
2023-09-26T21:12:29.607Z,12.40
2023-09-26T21:14:57.987Z,12.60
2023-09-26T21:17:25.981Z,11.33
2023-09-26T21:19:54.139Z,12.97
2023-09-26T21:22:22.659Z,12.50
2023-09-26T21:24:52.092Z,11.37
2023-09-26T21:27:20.155Z,11.30
2023-09-26T21:29:48.826Z,11.47
2023-09-26T21:32:17.344Z,11.87
2023-09-26T21:34:45.720Z,11.57
2023-09-26T21:37:13.809Z,12.40
2023-09-26T21:39:41.828Z,12.50
2023-09-26T21:42:11.261Z,11.77
2023-09-26T21:44:39.714Z,13.27
2023-09-26T21:47:07.890Z,14.10
2023-09-26T21:49:36.111Z,12.47
2023-09-26T21:52:04.563Z,11.87
2023-09-26T21:54:32.656Z,11.30
2023-09-26T21:57:03.847Z,10.97
2023-09-26T21:59:33.584Z,10.00
2023-09-26T22:02:02.036Z,11.40
2023-09-26T22:07:20.473Z,12.27
2023-09-26T22:09:48.516Z,11.77
2023-09-26T22:12:17.463Z,11.73
2023-09-26T22:14:47.238Z,12.07
2023-09-26T22:17:15.610Z,11.27
2023-09-26T22:19:44.308Z,11.73
2023-09-26T22:22:13.187Z,11.00
2023-09-26T22:24:41.655Z,11.40
2023-09-26T22:27:09.674Z,12.30
2023-09-26T22:29:37.803Z,12.30
2023-09-26T22:32:07.744Z,12.60
2023-09-26T22:34:37.616Z,13.20
2023-09-26T22:37:05.613Z,11.47
2023-09-26T22:39:34.484Z,13.47
2023-09-26T22:42:02.579Z,12.10
2023-09-26T22:44:32.206Z,12.70
2023-09-26T22:47:00.762Z,11.83
2023-09-26T22:49:30.309Z,13.23
2023-09-26T22:52:00.176Z,12.10
2023-09-26T22:54:28.436Z,10.90
2023-09-26T22:56:57.163Z,11.87
2023-09-26T22:59:26.309Z,12.53
2023-09-26T23:01:54.698Z,10.87
2023-09-26T23:04:23.190Z,12.63
2023-09-26T23:06:53.076Z,12.00
2023-09-26T23:09:21.073Z,11.87
2023-09-26T23:11:49.039Z,12.27
2023-09-26T23:14:17.332Z,10.87
2023-09-26T23:16:45.376Z,12.00
2023-09-26T23:19:13.367Z,11.20
2023-09-26T23:21:41.649Z,13.97
2023-09-26T23:24:11.533Z,11.40
2023-09-26T23:26:39.493Z,13.20
2023-09-26T23:29:08.115Z,11.50
2023-09-26T23:31:39.733Z,12.00
2023-09-26T23:34:07.902Z,12.17
2023-09-26T23:36:36.293Z,13.67
2023-09-26T23:39:07.130Z,11.90
2023-09-26T23:41:37.064Z,11.50
2023-09-26T23:44:08.397Z,12.53
2023-09-26T23:46:36.924Z,12.00
2023-09-26T23:49:05.034Z,12.73
2023-09-26T23:51:33.463Z,12.27
2023-09-26T23:54:01.490Z,12.27
2023-09-26T23:56:29.619Z,12.47
2023-09-26T23:58:59.446Z,13.27
